createdAt,value
2023-05-20T00:00:53.949Z,36.00
2023-05-20T00:03:20.959Z,36.00
2023-05-20T00:05:47.855Z,36.10
2023-05-20T00:08:14.927Z,36.20
2023-05-20T00:10:41.629Z,36.10
2023-05-20T00:13:09.831Z,36.40
2023-05-20T00:15:37.047Z,36.50
2023-05-20T00:18:04.505Z,36.50
2023-05-20T00:20:31.323Z,36.70
2023-05-20T00:22:58.020Z,36.80
2023-05-20T00:25:24.709Z,37.10
2023-05-20T00:27:52.465Z,36.90
2023-05-20T00:30:20.599Z,37.00
2023-05-20T00:32:47.743Z,37.10
2023-05-20T00:35:14.438Z,37.00
2023-05-20T00:37:41.180Z,36.80
2023-05-20T00:40:08.741Z,37.10
2023-05-20T00:42:35.454Z,36.90
2023-05-20T00:45:02.172Z,37.00
2023-05-20T00:47:33.405Z,36.80
2023-05-20T00:50:00.886Z,37.20
2023-05-20T00:52:31.264Z,36.90
2023-05-20T00:54:58.820Z,37.40
2023-05-20T00:57:25.807Z,37.00
2023-05-20T00:59:52.742Z,37.10
2023-05-20T01:02:20.237Z,37.20
2023-05-20T01:04:48.925Z,37.40
2023-05-20T01:07:17.308Z,37.40
2023-05-20T01:09:44.476Z,37.30
2023-05-20T01:12:15.959Z,37.50
2023-05-20T01:14:48.788Z,37.60
2023-05-20T01:17:16.009Z,37.60
2023-05-20T01:19:44.314Z,37.40
2023-05-20T01:22:13.962Z,37.50
2023-05-20T01:24:43.224Z,37.50
2023-05-20T01:27:10.623Z,37.70
2023-05-20T01:29:37.874Z,37.60
2023-05-20T01:32:09.430Z,37.50
2023-05-20T01:34:37.418Z,37.80
2023-05-20T01:37:05.181Z,37.70
2023-05-20T01:39:34.008Z,38.50
2023-05-20T01:42:03.405Z,38.00
2023-05-20T01:44:30.525Z,38.10
2023-05-20T01:46:57.355Z,38.00
2023-05-20T01:49:24.247Z,38.00
2023-05-20T01:51:50.971Z,38.00
2023-05-20T01:54:17.698Z,38.10
2023-05-20T01:56:45.907Z,37.90
2023-05-20T01:59:13.956Z,37.90
2023-05-20T02:01:40.904Z,38.10
2023-05-20T02:04:07.627Z,38.10
2023-05-20T02:06:34.411Z,38.10
2023-05-20T02:09:01.141Z,38.20
2023-05-20T02:11:28.658Z,38.20
2023-05-20T02:13:55.899Z,38.30
2023-05-20T02:16:24.015Z,37.80
2023-05-20T02:18:50.875Z,38.20
2023-05-20T02:21:17.583Z,38.10
2023-05-20T02:23:44.330Z,37.90
2023-05-20T02:26:11.119Z,38.00
2023-05-20T02:28:37.870Z,38.20
2023-05-20T02:31:04.585Z,37.90
2023-05-20T02:33:32.688Z,37.90
2023-05-20T02:35:59.499Z,38.20
2023-05-20T02:38:26.175Z,38.00
2023-05-20T02:40:52.942Z,38.20
2023-05-20T02:43:19.624Z,38.20
2023-05-20T02:45:46.996Z,38.30
2023-05-20T02:48:13.874Z,38.40
2023-05-20T02:50:42.220Z,38.40
2023-05-20T02:53:09.104Z,38.40
2023-05-20T02:55:36.096Z,38.30
2023-05-20T02:58:03.008Z,38.10
2023-05-20T03:00:29.820Z,38.20
2023-05-20T03:02:56.535Z,38.30
2023-05-20T03:05:23.373Z,38.50
2023-05-20T03:07:51.375Z,38.30
2023-05-20T03:10:18.089Z,38.70
2023-05-20T03:12:44.757Z,38.60
2023-05-20T03:15:11.640Z,38.60
2023-05-20T03:17:38.384Z,38.60
2023-05-20T03:20:06.173Z,38.70
2023-05-20T03:22:32.911Z,38.60
2023-05-20T03:25:00.908Z,38.60
2023-05-20T03:27:27.597Z,38.90
2023-05-20T03:29:54.309Z,38.80
2023-05-20T03:32:21.293Z,38.90
2023-05-20T03:34:48.034Z,38.90
2023-05-20T03:37:14.704Z,38.90
2023-05-20T03:39:41.390Z,38.80
2023-05-20T03:42:09.423Z,38.70
2023-05-20T03:44:36.100Z,39.10
2023-05-20T03:47:02.959Z,39.00
2023-05-20T03:49:29.681Z,39.20
2023-05-20T03:51:56.396Z,39.20
2023-05-20T03:54:23.078Z,39.20
2023-05-20T03:56:49.815Z,39.70
2023-05-20T03:59:18.653Z,40.10
2023-05-20T04:01:45.482Z,40.20
2023-05-20T04:04:12.392Z,40.20
2023-05-20T04:06:39.187Z,40.10
2023-05-20T04:09:05.911Z,40.10
2023-05-20T04:11:32.704Z,40.00
2023-05-20T04:13:59.371Z,40.20
2023-05-20T04:16:27.533Z,40.00
2023-05-20T04:18:54.347Z,40.20
2023-05-20T04:21:21.174Z,39.90
2023-05-20T04:23:48.024Z,40.00
2023-05-20T04:26:14.733Z,40.10
2023-05-20T04:28:41.456Z,40.30
2023-05-20T04:31:08.476Z,39.50
2023-05-20T04:33:36.855Z,40.70
2023-05-20T04:36:03.845Z,40.50
2023-05-20T04:38:30.678Z,40.80
2023-05-20T04:40:57.392Z,41.20
2023-05-20T04:43:24.465Z,41.30
2023-05-20T04:45:51.193Z,41.00
2023-05-20T04:48:17.884Z,40.20
2023-05-20T04:50:45.888Z,40.70
2023-05-20T04:53:12.573Z,40.60
2023-05-20T04:55:39.279Z,40.60
2023-05-20T04:58:05.981Z,40.90
2023-05-20T05:00:32.721Z,40.90
2023-05-20T05:02:59.600Z,40.90
2023-05-20T05:05:26.280Z,40.70
2023-05-20T05:07:54.332Z,41.00
2023-05-20T05:10:21.136Z,41.20
2023-05-20T05:12:47.812Z,40.90
2023-05-20T05:15:14.655Z,41.20
2023-05-20T05:17:41.388Z,41.40
2023-05-20T05:20:09.600Z,41.30
2023-05-20T05:22:36.305Z,41.50
2023-05-20T05:25:04.757Z,41.40
2023-05-20T05:27:31.440Z,41.30
2023-05-20T05:29:58.130Z,41.30
2023-05-20T05:32:25.181Z,41.20
2023-05-20T05:34:52.029Z,41.50
2023-05-20T05:37:18.904Z,41.20
2023-05-20T05:39:45.684Z,41.50
2023-05-20T05:42:13.725Z,41.70
2023-05-20T05:44:40.404Z,41.90
2023-05-20T05:47:07.198Z,41.70
2023-05-20T05:49:34.352Z,41.50
2023-05-20T05:52:01.012Z,41.60
2023-05-20T05:54:27.727Z,41.70
2023-05-20T05:56:54.936Z,42.10
2023-05-20T05:59:23.159Z,41.70
2023-05-20T06:01:49.897Z,41.50
2023-05-20T06:04:16.657Z,41.30
2023-05-20T06:06:43.408Z,41.70
2023-05-20T06:09:10.104Z,41.70
2023-05-20T06:11:36.869Z,42.30
2023-05-20T06:14:03.605Z,42.80
2023-05-20T06:16:31.688Z,42.60
2023-05-20T06:18:59.220Z,42.70
2023-05-20T06:21:27.663Z,43.60
2023-05-20T06:23:54.409Z,42.80
2023-05-20T06:26:21.077Z,43.10
2023-05-20T06:28:47.775Z,43.60
2023-05-20T06:31:14.508Z,43.20
2023-05-20T06:33:42.506Z,43.60
2023-05-20T06:36:09.342Z,43.80
2023-05-20T06:38:36.039Z,43.30
2023-05-20T06:41:03.008Z,43.80
2023-05-20T06:43:29.752Z,43.50
2023-05-20T06:45:56.492Z,43.60
2023-05-20T06:48:23.394Z,43.50
2023-05-20T06:50:51.606Z,43.40
2023-05-20T06:53:18.289Z,44.00
2023-05-20T06:55:45.048Z,43.90
2023-05-20T06:58:11.752Z,43.70
2023-05-20T07:00:38.431Z,43.80
2023-05-20T07:03:05.328Z,44.10
2023-05-20T07:05:32.317Z,44.30
2023-05-20T07:08:00.477Z,44.30
2023-05-20T07:10:27.256Z,44.50
2023-05-20T07:12:53.990Z,44.50
2023-05-20T07:15:20.703Z,44.40
2023-05-20T07:17:47.447Z,44.00
2023-05-20T07:20:14.255Z,44.30
2023-05-20T07:22:41.059Z,44.40
2023-05-20T07:25:09.905Z,44.30
2023-05-20T07:27:36.662Z,44.30
2023-05-20T07:30:04.254Z,44.10
2023-05-20T07:32:31.047Z,44.10
2023-05-20T07:34:57.784Z,43.90
2023-05-20T07:37:24.508Z,43.60
2023-05-20T07:39:51.320Z,43.80
2023-05-20T07:42:19.330Z,43.80
2023-05-20T07:44:46.074Z,43.50
2023-05-20T07:47:13.766Z,43.50
2023-05-20T07:49:40.486Z,43.70
2023-05-20T07:52:07.261Z,43.70
2023-05-20T07:54:34.726Z,43.70
2023-05-20T07:57:01.418Z,43.60
2023-05-20T07:59:29.462Z,44.00
2023-05-20T08:01:56.203Z,44.10
2023-05-20T08:04:23.007Z,44.20
2023-05-20T08:06:49.772Z,43.80
2023-05-20T08:09:16.501Z,44.10
2023-05-20T08:11:44.367Z,44.00
2023-05-20T08:14:12.452Z,45.00
2023-05-20T08:16:41.945Z,44.50
2023-05-20T08:19:08.861Z,44.40
2023-05-20T08:21:35.565Z,44.40
2023-05-20T08:24:02.429Z,44.60
2023-05-20T08:26:29.125Z,44.50
2023-05-20T08:28:55.807Z,44.30
2023-05-20T08:31:22.526Z,44.20
2023-05-20T08:33:50.541Z,44.60
2023-05-20T08:36:17.242Z,44.60
2023-05-20T08:38:43.941Z,44.30
2023-05-20T08:41:10.778Z,44.30
2023-05-20T08:43:37.952Z,44.50
2023-05-20T08:46:04.818Z,44.80
2023-05-20T08:48:33.292Z,44.60
2023-05-20T08:51:03.480Z,44.30
2023-05-20T08:53:30.706Z,44.30
2023-05-20T08:56:01.469Z,44.50
2023-05-20T08:58:28.723Z,44.60
2023-05-20T09:00:55.518Z,44.30
2023-05-20T09:03:22.236Z,44.60
2023-05-20T09:05:49.012Z,44.60
2023-05-20T09:08:17.090Z,44.30
2023-05-20T09:10:43.873Z,44.30
2023-05-20T09:13:11.441Z,44.30
2023-05-20T09:15:38.342Z,44.90
2023-05-20T09:18:07.696Z,46.20
2023-05-20T09:20:35.532Z,46.20
2023-05-20T09:23:03.802Z,45.90
2023-05-20T09:25:32.214Z,45.70
2023-05-20T09:27:59.104Z,45.30
2023-05-20T09:30:25.905Z,45.30
2023-05-20T09:32:56.096Z,45.20
2023-05-20T09:35:23.137Z,45.10
2023-05-20T09:37:53.154Z,44.80
2023-05-20T09:40:23.184Z,45.40
2023-05-20T09:42:54.054Z,44.30
2023-05-20T09:45:21.539Z,44.60
2023-05-20T09:47:50.699Z,44.40
2023-05-20T09:50:17.560Z,44.50
2023-05-20T09:52:44.444Z,44.30
2023-05-20T09:55:11.445Z,44.40
2023-05-20T09:57:38.552Z,44.50
2023-05-20T10:00:08.199Z,44.50
2023-05-20T10:02:36.041Z,44.50
2023-05-20T10:05:07.169Z,44.60
2023-05-20T10:08:06.481Z,44.60
2023-05-20T10:10:42.686Z,44.50
2023-05-20T10:13:18.487Z,44.50
2023-05-20T10:15:55.357Z,44.70
2023-05-20T10:18:36.798Z,44.80
2023-05-20T10:21:03.798Z,44.50
2023-05-20T10:23:31.143Z,44.10
2023-05-20T10:25:58.761Z,44.50
2023-05-20T10:28:29.740Z,44.60
2023-05-20T10:30:58.439Z,44.70
2023-05-20T10:33:26.453Z,44.60
2023-05-20T10:35:53.904Z,44.70
2023-05-20T10:38:20.913Z,44.40
2023-05-20T10:40:48.015Z,44.40
2023-05-20T10:43:16.185Z,44.20
2023-05-20T10:45:50.234Z,44.30
2023-05-20T10:48:29.229Z,44.40
2023-05-20T10:50:56.854Z,44.30
2023-05-20T10:53:33.678Z,44.20
2023-05-20T10:56:01.554Z,44.30
2023-05-20T10:58:36.037Z,44.50
2023-05-20T11:01:02.930Z,44.50
2023-05-20T11:03:31.706Z,44.30
2023-05-20T11:05:58.487Z,44.30
2023-05-20T11:08:29.784Z,44.30
2023-05-20T11:10:57.445Z,44.10
2023-05-20T11:13:25.594Z,44.40
2023-05-20T11:15:52.738Z,44.50
2023-05-20T11:18:19.495Z,44.60
2023-05-20T11:20:47.973Z,44.30
2023-05-20T11:23:15.696Z,44.60
2023-05-20T11:25:42.598Z,44.50
2023-05-20T11:28:12.357Z,44.50
2023-05-20T11:30:39.192Z,44.20
2023-05-20T11:33:05.979Z,44.40
2023-05-20T11:35:32.985Z,44.30
2023-05-20T11:38:04.346Z,44.20
2023-05-20T11:40:38.994Z,44.20
2023-05-20T11:43:14.408Z,44.10
2023-05-20T11:45:42.469Z,44.00
2023-05-20T11:48:09.843Z,44.00
2023-05-20T11:50:37.880Z,44.00
2023-05-20T11:53:07.320Z,44.00
2023-05-20T11:55:34.636Z,44.00
2023-05-20T11:58:02.960Z,44.90
2023-05-20T12:00:36.206Z,44.80
2023-05-20T12:03:10.047Z,45.00
2023-05-20T12:05:37.014Z,44.80
2023-05-20T12:08:05.957Z,44.50
2023-05-20T12:10:33.007Z,44.10
2023-05-20T12:13:00.278Z,44.10
2023-05-20T12:15:27.045Z,43.80
2023-05-20T12:17:54.326Z,44.00
2023-05-20T12:20:22.818Z,43.70
2023-05-20T12:22:50.018Z,43.70
2023-05-20T12:25:19.317Z,43.70
2023-05-20T12:27:48.212Z,43.40
2023-05-20T12:30:16.382Z,43.40
2023-05-20T12:32:43.430Z,43.20
2023-05-20T12:35:11.221Z,43.20
2023-05-20T12:37:38.667Z,43.20
2023-05-20T12:40:06.543Z,43.10
2023-05-20T12:42:34.987Z,43.60
2023-05-20T12:45:01.758Z,42.90
2023-05-20T12:47:28.653Z,42.80
2023-05-20T12:49:55.445Z,42.60
2023-05-20T12:52:23.023Z,42.70
2023-05-20T12:54:49.971Z,42.80
2023-05-20T12:57:16.848Z,42.70
2023-05-20T12:59:45.042Z,42.50
2023-05-20T13:02:11.864Z,42.40
2023-05-20T13:04:38.716Z,42.30
2023-05-20T13:07:05.702Z,42.20
2023-05-20T13:09:32.526Z,42.20
2023-05-20T13:11:59.352Z,42.20
2023-05-20T13:14:26.154Z,41.90
2023-05-20T13:16:54.307Z,41.80
2023-05-20T13:19:21.163Z,41.80
2023-05-20T13:21:48.036Z,41.50
2023-05-20T13:24:14.826Z,41.70
2023-05-20T13:26:41.734Z,41.40
2023-05-20T13:29:08.461Z,41.30
2023-05-20T13:31:35.302Z,41.40
2023-05-20T13:34:03.660Z,41.40
2023-05-20T13:36:30.442Z,40.40
2023-05-20T13:38:57.126Z,41.00
2023-05-20T13:41:24.374Z,40.30
2023-05-20T13:43:51.184Z,41.10
2023-05-20T13:46:18.086Z,40.70
2023-05-20T13:48:45.001Z,40.70
2023-05-20T13:51:13.134Z,40.90
2023-05-20T13:53:40.126Z,41.00
2023-05-20T13:56:07.166Z,40.70
2023-05-20T13:58:33.920Z,41.30
2023-05-20T14:01:00.729Z,41.50
2023-05-20T14:03:27.643Z,40.90
2023-05-20T14:05:54.639Z,41.30
2023-05-20T14:08:22.815Z,40.90
2023-05-20T14:10:49.501Z,41.00
2023-05-20T14:13:16.348Z,41.00
2023-05-20T14:15:43.093Z,40.70
2023-05-20T14:18:09.971Z,40.80
2023-05-20T14:20:37.120Z,40.90
2023-05-20T14:23:04.215Z,40.90
2023-05-20T14:25:32.331Z,41.40
2023-05-20T14:27:59.071Z,40.70
2023-05-20T14:30:25.801Z,41.00
2023-05-20T14:32:52.551Z,40.90
2023-05-20T14:35:19.420Z,41.40
2023-05-20T14:37:46.299Z,41.30
2023-05-20T14:40:13.555Z,41.50
2023-05-20T14:42:41.586Z,41.20
2023-05-20T14:45:09.572Z,41.00
2023-05-20T14:47:36.332Z,40.80
2023-05-20T14:50:03.260Z,41.00
2023-05-20T14:52:30.035Z,40.50
2023-05-20T14:54:56.734Z,40.80
2023-05-20T14:57:23.504Z,40.80
2023-05-20T14:59:51.594Z,40.60
2023-05-20T15:02:18.429Z,40.20
2023-05-20T15:04:45.327Z,40.80
2023-05-20T15:07:12.127Z,40.80
2023-05-20T15:09:38.847Z,40.80
2023-05-20T15:12:06.224Z,40.60
2023-05-20T15:14:32.920Z,40.40
2023-05-20T15:17:01.005Z,40.70
2023-05-20T15:19:28.475Z,40.60
2023-05-20T15:21:55.218Z,40.10
2023-05-20T15:24:21.981Z,40.60
2023-05-20T15:26:48.701Z,40.30
2023-05-20T15:29:15.458Z,40.10
2023-05-20T15:31:42.246Z,40.60
2023-05-20T15:34:10.388Z,40.50
2023-05-20T15:36:37.160Z,40.40
2023-05-20T15:39:04.025Z,40.10
2023-05-20T15:41:31.406Z,40.30
2023-05-20T15:43:58.125Z,40.10
2023-05-20T15:46:25.365Z,39.90
2023-05-20T15:48:52.107Z,40.40
2023-05-20T15:51:20.121Z,40.10
2023-05-20T15:53:46.825Z,39.70
2023-05-20T15:56:13.633Z,40.00
2023-05-20T15:58:40.441Z,40.20
2023-05-20T16:01:07.205Z,39.50
2023-05-20T16:03:34.005Z,39.70
2023-05-20T16:06:00.838Z,39.80
2023-05-20T16:08:28.881Z,40.20
2023-05-20T16:10:55.900Z,40.30
2023-05-20T16:13:22.707Z,40.00
2023-05-20T16:15:49.419Z,40.30
2023-05-20T16:18:16.289Z,40.10
2023-05-20T16:20:42.961Z,40.00
2023-05-20T16:23:09.662Z,40.00
2023-05-20T16:25:37.726Z,40.00
2023-05-20T16:28:04.437Z,40.50
2023-05-20T16:30:31.380Z,40.40
2023-05-20T16:32:58.116Z,40.10
2023-05-20T16:35:27.810Z,40.00
2023-05-20T16:37:54.514Z,40.00
2023-05-20T16:40:21.363Z,40.00
2023-05-20T16:42:49.376Z,40.40
2023-05-20T16:45:16.280Z,39.80
2023-05-20T16:47:43.095Z,40.00
2023-05-20T16:50:10.472Z,39.80
2023-05-20T16:52:37.280Z,40.00
2023-05-20T16:55:04.636Z,40.00
2023-05-20T16:57:31.405Z,39.80
2023-05-20T16:59:59.438Z,39.80
2023-05-20T17:02:26.342Z,39.90
2023-05-20T17:04:53.049Z,39.70
2023-05-20T17:07:19.813Z,39.50
2023-05-20T17:09:46.525Z,39.40
2023-05-20T17:12:13.399Z,39.40
2023-05-20T17:14:40.118Z,39.40
2023-05-20T17:17:08.301Z,39.30
2023-05-20T17:19:35.072Z,38.90
2023-05-20T17:22:01.852Z,38.90
2023-05-20T17:24:28.616Z,39.00
2023-05-20T17:26:55.334Z,38.90
2023-05-20T17:29:22.042Z,38.80
2023-05-20T17:31:48.754Z,39.00
2023-05-20T17:34:16.899Z,39.00
2023-05-20T17:36:43.789Z,39.00
2023-05-20T17:39:10.609Z,38.80
2023-05-20T17:41:37.362Z,38.70
2023-05-20T17:44:04.633Z,38.60
2023-05-20T17:46:31.391Z,38.60
2023-05-20T17:48:58.227Z,38.60
2023-05-20T17:51:26.352Z,38.60
2023-05-20T17:53:53.012Z,38.50
2023-05-20T17:56:19.933Z,38.40
2023-05-20T17:58:46.607Z,38.60
2023-05-20T18:01:13.412Z,38.60
2023-05-20T18:03:40.338Z,38.60
2023-05-20T18:06:07.324Z,38.50
2023-05-20T18:08:35.390Z,38.60
2023-05-20T18:11:02.145Z,38.70
2023-05-20T18:13:28.828Z,38.80
2023-05-20T18:15:55.573Z,38.90
2023-05-20T18:18:22.343Z,38.90
2023-05-20T18:20:49.058Z,39.00
2023-05-20T18:23:15.822Z,39.10
2023-05-20T18:25:44.084Z,39.20
2023-05-20T18:28:10.815Z,39.30
2023-05-20T18:30:37.681Z,39.40
2023-05-20T18:33:04.558Z,39.40
2023-05-20T18:35:31.298Z,39.40
2023-05-20T18:37:57.991Z,39.50
2023-05-20T18:40:24.699Z,39.50
2023-05-20T18:42:52.703Z,39.50
2023-05-20T18:45:19.375Z,39.70
2023-05-20T18:47:46.193Z,39.70
2023-05-20T18:50:12.971Z,39.90
2023-05-20T18:52:39.647Z,39.90
2023-05-20T18:55:07.567Z,40.00
2023-05-20T18:57:34.280Z,40.00
2023-05-20T19:00:02.323Z,40.20
2023-05-20T19:02:29.110Z,40.10
2023-05-20T19:04:55.881Z,40.10
2023-05-20T19:07:22.623Z,40.10
2023-05-20T19:09:49.469Z,40.40
2023-05-20T19:12:16.201Z,40.40
2023-05-20T19:14:42.997Z,40.30
2023-05-20T19:17:11.082Z,40.30
2023-05-20T19:19:37.814Z,40.40
2023-05-20T19:22:04.845Z,40.50
2023-05-20T19:24:31.664Z,40.30
2023-05-20T19:26:58.367Z,40.50
2023-05-20T19:29:25.127Z,40.40
2023-05-20T19:31:51.808Z,40.50
2023-05-20T19:34:19.824Z,40.60
2023-05-20T19:36:46.669Z,40.50
2023-05-20T19:39:13.746Z,40.60
2023-05-20T19:41:40.451Z,40.60
2023-05-20T19:44:08.201Z,40.70
2023-05-20T19:46:36.082Z,40.70
2023-05-20T19:49:02.887Z,40.90
2023-05-20T19:51:30.951Z,40.90
2023-05-20T19:53:57.695Z,40.90
2023-05-20T19:56:24.486Z,40.70
2023-05-20T19:58:51.392Z,40.70
2023-05-20T20:01:18.148Z,40.70
2023-05-20T20:03:44.962Z,40.80
2023-05-20T20:06:12.317Z,40.80
2023-05-20T20:08:40.440Z,40.70
2023-05-20T20:11:07.583Z,40.60
2023-05-20T20:13:34.383Z,40.70
2023-05-20T20:16:01.133Z,40.70
2023-05-20T20:18:27.901Z,40.70
2023-05-20T20:20:54.938Z,40.50
2023-05-20T20:23:21.640Z,40.80
2023-05-20T20:25:49.703Z,40.70
2023-05-20T20:28:16.605Z,40.70
2023-05-20T20:30:43.368Z,40.70
2023-05-20T20:33:10.225Z,40.90
2023-05-20T20:35:37.332Z,40.80
2023-05-20T20:38:04.324Z,40.70
2023-05-20T20:40:31.091Z,40.80
2023-05-20T20:42:59.165Z,40.90
2023-05-20T20:45:25.832Z,41.00
2023-05-20T20:47:52.639Z,41.20
2023-05-20T20:50:19.403Z,41.00
2023-05-20T20:52:46.132Z,41.20
2023-05-20T20:55:12.900Z,41.10
2023-05-20T20:57:39.653Z,41.20
2023-05-20T21:00:08.972Z,41.70
2023-05-20T21:02:35.717Z,41.50
2023-05-20T21:05:02.440Z,41.40
2023-05-20T21:07:29.273Z,41.40
2023-05-20T21:09:56.066Z,41.40
2023-05-20T21:12:22.785Z,41.10
2023-05-20T21:14:49.686Z,41.40
2023-05-20T21:17:17.749Z,41.50
2023-05-20T21:19:44.518Z,41.50
2023-05-20T21:22:11.308Z,41.30
2023-05-20T21:24:38.122Z,41.40
2023-05-20T21:27:05.198Z,41.50
2023-05-20T21:29:32.294Z,41.50
2023-05-20T21:31:59.041Z,41.50
2023-05-20T21:34:27.100Z,41.40
2023-05-20T21:36:53.856Z,41.60
2023-05-20T21:39:20.605Z,41.40
2023-05-20T21:41:47.305Z,41.40
2023-05-20T21:44:14.105Z,41.40
2023-05-20T21:46:40.956Z,41.50
2023-05-20T21:49:07.825Z,41.50
2023-05-20T21:51:35.867Z,41.50
2023-05-20T21:54:02.584Z,41.70
2023-05-20T21:56:29.339Z,41.60
2023-05-20T21:58:56.076Z,41.30
2023-05-20T22:01:22.880Z,41.40
2023-05-20T22:03:51.540Z,41.50
2023-05-20T22:06:18.985Z,41.80
2023-05-20T22:08:47.140Z,41.80
2023-05-20T22:11:13.920Z,41.60
2023-05-20T22:13:40.605Z,41.90
2023-05-20T22:16:08.541Z,41.70
2023-05-20T22:18:35.667Z,41.80
2023-05-20T22:21:02.343Z,41.70
2023-05-20T22:23:29.233Z,41.70
2023-05-20T22:25:57.445Z,42.30
2023-05-20T22:28:24.286Z,42.50
2023-05-20T22:30:51.109Z,42.60
2023-05-20T22:33:17.806Z,42.50
2023-05-20T22:35:44.526Z,42.40
2023-05-20T22:38:11.258Z,42.20
2023-05-20T22:40:37.941Z,41.70
2023-05-20T22:43:06.009Z,42.00
2023-05-20T22:45:32.832Z,42.00
2023-05-20T22:47:59.736Z,41.80
2023-05-20T22:50:26.543Z,42.00
2023-05-20T22:52:53.334Z,42.40
2023-05-20T22:55:20.080Z,42.30
2023-05-20T22:57:46.805Z,42.40
2023-05-20T23:00:15.712Z,42.50
2023-05-20T23:02:42.463Z,42.40
2023-05-20T23:05:09.217Z,41.90
2023-05-20T23:07:35.941Z,42.20
2023-05-20T23:10:02.726Z,42.50
2023-05-20T23:12:29.471Z,42.30
2023-05-20T23:14:56.275Z,42.30
2023-05-20T23:17:24.403Z,42.30
2023-05-20T23:19:51.174Z,43.00
2023-05-20T23:22:17.940Z,42.70
2023-05-20T23:24:44.634Z,42.30
2023-05-20T23:27:11.452Z,42.20
2023-05-20T23:29:38.281Z,42.10
2023-05-20T23:32:05.572Z,42.30
2023-05-20T23:34:33.634Z,42.20
2023-05-20T23:37:00.333Z,42.50
2023-05-20T23:39:27.073Z,42.30
2023-05-20T23:41:53.778Z,42.70
2023-05-20T23:44:20.451Z,42.60
2023-05-20T23:46:47.145Z,43.20
2023-05-20T23:49:13.835Z,42.60
2023-05-20T23:51:41.848Z,43.10
2023-05-20T23:54:08.558Z,42.90
2023-05-20T23:56:35.231Z,42.60
2023-05-20T23:59:01.901Z,42.40
